Time;durP1;ratioP1;P1;durP2;ratioP2;P2;SDS_P1;SDS_P2;PMS_P1;PMS_P2;Temp;Humidity;BMP_temperature;BMP_pressure;BME280_temperature;BME280_humidity;BME280_pressure;Samples;Min_cycle;Max_cycle;Signal;HPM_P1;HPM_P2
2021/12/30 00:01:50;;;;;;;145.10;41.97;;;153.60;2252.80;;;;;;5071931;28;20028;-53
2021/12/30 00:04:16;;;;;;;115.32;36.38;;;153.60;2252.80;;;;;;5075049;28;20435;-53
2021/12/30 00:06:42;;;;;;;130.82;38.33;;;128.80;2252.80;;;;;;5075125;28;20480;-52
2021/12/30 00:09:10;;;;;;;122.78;38.50;;;128.70;2252.80;;;;;;5075818;28;20046;-53
2021/12/30 00:11:37;;;;;;;99.15;36.67;;;128.70;2252.80;;;;;;5075791;28;20096;-53
2021/12/30 00:14:03;;;;;;;118.15;35.85;;;128.50;2252.80;;;;;;5075548;28;20418;-53
2021/12/30 00:16:29;;;;;;;113.78;35.33;;;128.50;2252.80;;;;;;5075342;28;20064;-68
2021/12/30 00:18:55;;;;;;;116.28;37.05;;;128.50;2252.80;;;;;;5075353;28;20051;-70
2021/12/30 00:21:23;;;;;;;154.32;42.25;;;128.40;2252.80;;;;;;5074492;28;20108;-69
2021/12/30 00:23:50;;;;;;;177.48;45.80;;;128.50;2252.80;;;;;;5074972;28;20396;-69
2021/12/30 00:26:17;;;;;;;173.88;46.45;;;128.50;2252.80;;;;;;5075250;28;20024;-70
2021/12/30 00:28:43;;;;;;;195.63;50.47;;;128.60;2252.80;;;;;;5072984;28;20393;-53
2021/12/30 00:31:09;;;;;;;172.95;46.70;;;128.60;2252.80;;;;;;5075442;28;20053;-53
2021/12/30 00:33:35;;;;;;;140.10;45.58;;;128.60;2252.80;;;;;;5075578;28;20029;-53
2021/12/30 00:36:07;;;;;;;198.73;46.67;;;128.70;2252.80;;;;;;5075608;28;20032;-53
2021/12/30 00:38:37;;;;;;;132.40;42.33;;;128.80;2252.80;;;;;;5075834;28;20124;-54
2021/12/30 00:41:03;;;;;;;167.18;44.97;;;128.70;2252.80;;;;;;5075799;28;20037;-53
2021/12/30 00:43:29;;;;;;;170.88;43.97;;;128.70;2252.80;;;;;;5075380;28;20032;-54
2021/12/30 00:45:56;;;;;;;132.50;36.95;;;128.80;2252.80;;;;;;5076186;28;20117;-54
2021/12/30 00:48:21;;;;;;;112.35;34.13;;;128.80;2252.80;;;;;;5075543;28;20067;-53
2021/12/30 00:50:48;;;;;;;109.47;34.03;;;128.80;2252.80;;;;;;5075236;28;20477;-54
2021/12/30 00:53:14;;;;;;;77.07;30.40;;;128.70;2252.80;;;;;;5075461;28;20051;-53
2021/12/30 00:55:41;;;;;;;95.63;30.23;;;128.80;2252.80;;;;;;5075189;28;20024;-64
2021/12/30 00:58:08;;;;;;;100.53;30.25;;;128.70;2252.80;;;;;;5075438;28;20028;-53
2021/12/30 01:00:37;;;;;;;94.32;30.25;;;128.60;2252.80;;;;;;5075333;28;20121;-57
2021/12/30 01:03:03;;;;;;;122.65;33.60;;;128.60;2252.80;;;;;;5073979;28;20033;-52
2021/12/30 01:05:29;;;;;;;108.90;31.92;;;128.60;2252.80;;;;;;5073730;28;20029;-52
2021/12/30 01:07:56;;;;;;;89.60;29.25;;;128.70;2252.80;;;;;;5074978;28;20366;-53
2021/12/30 01:10:23;;;;;;;76.15;27.08;;;128.70;2252.80;;;;;;5074936;28;20037;-53
2021/12/30 01:12:50;;;;;;;83.57;29.27;;;128.60;2252.80;;;;;;5075098;28;20032;-53
2021/12/30 01:15:18;;;;;;;68.77;25.53;;;128.50;2252.80;;;;;;5074800;28;20481;-52
2021/12/30 01:20:14;;;;;;;66.43;23.20;;;128.50;2252.80;;;;;;5075288;28;20365;-53
2021/12/30 01:22:40;;;;;;;68.90;25.13;;;128.40;2252.80;;;;;;5074514;28;20507;-52
2021/12/30 01:25:07;;;;;;;81.65;27.75;;;128.50;2252.80;;;;;;5074555;28;20116;-52
2021/12/30 01:27:36;;;;;;;67.47;26.07;;;128.40;2252.80;;;;;;5074517;28;20035;-52
2021/12/30 01:30:04;;;;;;;71.20;25.47;;;128.30;2252.80;;;;;;5074302;28;20025;-54
2021/12/30 01:32:30;;;;;;;46.50;19.38;;;128.30;2252.80;;;;;;5074469;28;20035;-53
2021/12/30 01:34:56;;;;;;;54.70;20.17;;;128.20;2252.80;;;;;;5074423;28;20028;-52
2021/12/30 01:37:24;;;;;;;62.50;21.08;;;103.30;2227.20;;;;;;5074561;28;20054;-52
2021/12/30 01:39:50;;;;;;;58.43;22.30;;;103.20;2227.20;;;;;;5073301;28;20024;-53
2021/12/30 01:42:16;;;;;;;57.30;22.03;;;103.20;2227.20;;;;;;5074157;28;20036;-53
2021/12/30 01:44:42;;;;;;;54.77;19.33;;;103.10;2227.20;;;;;;5074309;28;20039;-53
2021/12/30 01:47:08;;;;;;;53.93;21.47;;;103.10;2227.20;;;;;;5074153;28;20104;-53
2021/12/30 01:49:34;;;;;;;63.23;22.43;;;103.00;2227.20;;;;;;5074147;28;20043;-52
2021/12/30 01:52:00;;;;;;;70.70;23.20;;;103.00;2227.20;;;;;;5074047;28;20029;-52
2021/12/30 01:54:27;;;;;;;65.87;24.67;;;102.90;2227.20;;;;;;5074010;28;20465;-52
2021/12/30 01:56:56;;;;;;;69.73;23.77;;;102.90;2227.20;;;;;;5074019;28;20082;-52
2021/12/30 01:59:24;;;;;;;72.80;23.60;;;102.90;2227.20;;;;;;5073918;28;20074;-53
2021/12/30 02:01:56;;;;;;;70.33;24.00;;;102.90;2227.20;;;;;;5073868;28;20025;-53
2021/12/30 02:04:24;;;;;;;81.20;27.00;;;103.00;2227.20;;;;;;5073878;28;20481;-53
2021/12/30 02:06:50;;;;;;;58.20;23.23;;;103.00;2227.20;;;;;;5073794;28;20027;-52
2021/12/30 02:09:19;;;;;;;95.53;26.90;;;103.10;2227.20;;;;;;5072505;28;20029;-53
2021/12/30 02:11:44;;;;;;;92.33;29.83;;;103.10;2227.20;;;;;;5073758;28;20043;-52
2021/12/30 02:14:11;;;;;;;91.07;27.63;;;103.20;2227.20;;;;;;5073747;28;20412;-53
2021/12/30 02:16:37;;;;;;;83.17;28.00;;;103.10;2227.20;;;;;;5073662;28;20539;-52
2021/12/30 02:19:04;;;;;;;102.70;26.93;;;103.20;2227.20;;;;;;5072456;28;20026;-53
2021/12/30 02:21:30;;;;;;;106.07;29.27;;;103.10;2227.20;;;;;;5073127;28;20025;-53
2021/12/30 02:23:58;;;;;;;89.30;26.67;;;103.20;2227.20;;;;;;5074089;28;20445;-52
2021/12/30 02:26:26;;;;;;;128.03;29.10;;;103.20;2227.20;;;;;;5073578;28;20020;-52
2021/12/30 02:28:52;;;;;;;96.67;27.73;;;103.20;2227.20;;;;;;5073787;28;20392;-52
2021/12/30 02:31:27;;;;;;;123.03;31.37;;;103.10;2227.20;;;;;;5073323;28;20037;-52
2021/12/30 02:33:55;;;;;;;114.00;30.03;;;103.00;2227.20;;;;;;5073803;28;20437;-52
2021/12/30 02:36:39;;;;;;;58.30;21.97;;;103.10;2227.20;;;;;;5073413;28;20496;-52
2021/12/30 02:39:10;;;;;;;68.18;20.25;;;103.10;2227.20;;;;;;5072197;28;20417;-53
2021/12/30 02:41:38;;;;;;;169.63;26.63;;;103.00;2227.20;;;;;;5073679;28;20051;-52
2021/12/30 02:44:06;;;;;;;80.75;18.15;;;103.00;2227.20;;;;;;5073265;28;20039;-52
2021/12/30 02:46:34;;;;;;;62.27;18.07;;;103.00;2227.20;;;;;;5073660;28;20108;-52
2021/12/30 02:49:00;;;;;;;81.93;20.53;;;103.10;2227.20;;;;;;5073597;28;20032;-53
2021/12/30 02:51:27;;;;;;;77.83;20.17;;;103.00;2227.20;;;;;;5073279;28;20473;-52
2021/12/30 02:53:53;;;;;;;64.80;20.77;;;103.20;2227.20;;;;;;5073296;28;20107;-53
2021/12/30 02:56:21;;;;;;;82.30;19.50;;;103.10;2227.20;;;;;;5073221;28;20047;-53
2021/12/30 02:58:47;;;;;;;103.00;25.33;;;103.00;2227.20;;;;;;5073579;28;20021;-53
2021/12/30 03:01:20;;;;;;;128.67;25.20;;;103.00;2227.20;;;;;;5073513;28;20025;-53
2021/12/30 03:03:47;;;;;;;105.37;23.50;;;103.10;2227.20;;;;;;5073452;28;20044;-53
2021/12/30 03:06:15;;;;;;;123.20;24.27;;;102.90;2227.20;;;;;;5073120;28;20437;-52
2021/12/30 03:08:41;;;;;;;125.47;24.80;;;103.00;2227.20;;;;;;5073388;28;20466;-52
2021/12/30 03:11:08;;;;;;;102.50;24.30;;;103.00;2227.20;;;;;;5073094;28;20075;-52
2021/12/30 03:13:35;;;;;;;103.37;22.07;;;103.10;2227.20;;;;;;5073053;28;20381;-52
2021/12/30 03:16:04;;;;;;;121.93;25.33;;;103.10;2227.20;;;;;;5073011;28;20029;-52
2021/12/30 03:18:32;;;;;;;73.93;22.07;;;103.10;2227.20;;;;;;5073652;28;20456;-52
2021/12/30 03:20:59;;;;;;;87.60;22.47;;;103.10;2227.20;;;;;;5073233;28;20074;-52
2021/12/30 03:23:25;;;;;;;97.73;23.63;;;103.10;2227.20;;;;;;5072939;28;20036;-52
2021/12/30 03:25:51;;;;;;;77.90;20.43;;;103.10;2227.20;;;;;;5073005;28;20021;-52
2021/12/30 03:28:17;;;;;;;62.20;19.70;;;103.10;2227.20;;;;;;5072983;28;20109;-52
2021/12/30 03:30:44;;;;;;;79.50;21.37;;;103.20;2227.20;;;;;;5072733;28;20044;-53
2021/12/30 03:33:10;;;;;;;85.33;21.00;;;103.10;2227.20;;;;;;5076228;28;20020;-53
2021/12/30 03:35:36;;;;;;;67.77;20.23;;;103.10;2227.20;;;;;;5076730;28;20051;-53
2021/12/30 03:38:03;;;;;;;64.63;19.47;;;103.10;2227.20;;;;;;5076673;28;20021;-53
2021/12/30 03:40:29;;;;;;;107.30;23.37;;;103.10;2227.20;;;;;;5076623;28;20028;-53
2021/12/30 03:42:55;;;;;;;92.53;22.80;;;103.10;2227.20;;;;;;5076421;28;20063;-53
2021/12/30 03:45:21;;;;;;;72.07;21.77;;;103.20;2227.20;;;;;;5076503;28;20028;-52
2021/12/30 03:47:49;;;;;;;70.57;21.97;;;103.20;2227.20;;;;;;5075148;28;20043;-52
2021/12/30 03:50:20;;;;;;;78.70;22.63;;;103.20;2227.20;;;;;;5075146;28;20025;-52
2021/12/30 03:52:56;;;;;;;89.03;23.07;;;103.20;2227.20;;;;;;5076703;28;20035;-52
2021/12/30 03:55:24;;;;;;;68.20;21.03;;;103.10;2227.20;;;;;;5076319;28;20021;-52
2021/12/30 03:57:51;;;;;;;66.43;19.95;;;103.10;2227.20;;;;;;5076187;28;20033;-52
2021/12/30 04:00:18;;;;;;;54.93;19.23;;;103.20;2227.20;;;;;;5076242;28;20031;-52
2021/12/30 04:02:44;;;;;;;63.77;20.37;;;103.10;2227.20;;;;;;5076402;28;20439;-53
2021/12/30 04:05:10;;;;;;;81.20;20.90;;;103.10;2227.20;;;;;;5076962;28;20034;-52
2021/12/30 04:07:37;;;;;;;145.87;24.97;;;103.00;2227.20;;;;;;5076164;28;20025;-52
2021/12/30 04:10:07;;;;;;;60.58;19.50;;;103.10;2227.20;;;;;;5076333;28;20020;-53
2021/12/30 04:12:33;;;;;;;53.03;19.93;;;103.10;2227.20;;;;;;5075983;28;20028;-52
2021/12/30 04:14:59;;;;;;;56.23;19.37;;;103.00;2227.20;;;;;;5076337;28;20070;-52
2021/12/30 04:17:25;;;;;;;47.63;18.13;;;103.00;2227.20;;;;;;5076218;28;20041;-52
2021/12/30 04:19:51;;;;;;;65.70;19.27;;;103.00;2227.20;;;;;;5076651;28;20029;-53
2021/12/30 04:22:18;;;;;;;46.27;15.90;;;103.00;2227.20;;;;;;5076028;28;20035;-53
2021/12/30 04:24:47;;;;;;;64.80;17.20;;;103.00;2227.20;;;;;;5075713;28;20083;-52
2021/12/30 04:27:13;;;;;;;57.27;16.87;;;102.90;2227.20;;;;;;5075765;28;20028;-53
2021/12/30 04:29:39;;;;;;;62.93;18.43;;;102.90;2227.20;;;;;;5075956;28;20047;-53
2021/12/30 04:32:05;;;;;;;123.57;20.07;;;102.90;2227.20;;;;;;5075469;28;20545;-52
2021/12/30 04:34:32;;;;;;;185.43;23.47;;;103.00;2227.20;;;;;;5075608;28;20024;-52
2021/12/30 04:37:00;;;;;;;146.97;23.17;;;103.00;2227.20;;;;;;5074269;28;20046;-53
2021/12/30 04:39:28;;;;;;;111.77;20.47;;;102.90;2227.20;;;;;;5075552;28;20058;-52
2021/12/30 04:41:54;;;;;;;185.50;24.20;;;102.90;2227.20;;;;;;5075302;28;20032;-52
2021/12/30 04:44:21;;;;;;;150.87;21.80;;;102.90;2227.20;;;;;;5074936;28;20052;-52
2021/12/30 04:46:47;;;;;;;68.23;17.17;;;103.00;2227.20;;;;;;5075331;28;20036;-52
2021/12/30 04:49:13;;;;;;;51.63;16.03;;;102.90;2227.20;;;;;;5075645;28;20082;-52
2021/12/30 04:51:39;;;;;;;119.70;20.20;;;103.00;2227.20;;;;;;5075334;28;20028;-52
2021/12/30 04:54:05;;;;;;;104.90;16.57;;;103.00;2227.20;;;;;;5074005;28;20032;-52
2021/12/30 04:56:30;;;;;;;73.67;16.83;;;103.00;2227.20;;;;;;5075201;28;20032;-52
2021/12/30 04:58:56;;;;;;;57.23;16.70;;;102.90;2227.20;;;;;;5075117;28;20056;-52
2021/12/30 05:01:22;;;;;;;71.27;17.17;;;102.90;2227.20;;;;;;5075389;28;20063;-52
2021/12/30 05:03:49;;;;;;;208.37;23.00;;;103.00;2227.20;;;;;;5074956;28;20048;-53
2021/12/30 05:06:15;;;;;;;124.37;18.90;;;103.00;2227.20;;;;;;5075022;28;20145;-53
2021/12/30 05:08:41;;;;;;;176.47;21.13;;;103.00;2227.20;;;;;;5075005;28;20056;-53
2021/12/30 05:11:09;;;;;;;140.37;19.83;;;102.90;2227.20;;;;;;5074940;28;20025;-53
2021/12/30 05:13:37;;;;;;;101.10;19.37;;;102.90;2227.20;;;;;;5075153;28;20384;-52
2021/12/30 05:16:03;;;;;;;85.30;17.50;;;102.80;2227.20;;;;;;5074782;28;20025;-52
2021/12/30 05:18:33;;;;;;;97.80;17.57;;;102.90;2227.20;;;;;;5075056;28;20035;-52
2021/12/30 05:21:01;;;;;;;234.23;30.93;;;102.80;2227.20;;;;;;5074976;28;20460;-52
2021/12/30 05:23:28;;;;;;;378.77;54.47;;;102.90;2227.20;;;;;;5074898;28;20037;-52
2021/12/30 05:25:54;;;;;;;158.90;33.17;;;102.90;2227.20;;;;;;5074550;28;20043;-53
2021/12/30 05:28:20;;;;;;;248.37;33.83;;;102.90;2227.20;;;;;;5074843;28;20082;-52
2021/12/30 05:30:46;;;;;;;305.87;30.57;;;102.90;2227.20;;;;;;5074459;28;20071;-52
2021/12/30 05:33:12;;;;;;;247.97;30.17;;;102.90;2227.20;;;;;;5073142;28;20058;-52
2021/12/30 05:35:39;;;;;;;249.27;31.23;;;102.80;2227.20;;;;;;5074716;28;20028;-52
2021/12/30 05:38:05;;;;;;;136.15;21.15;;;102.80;2227.20;;;;;;5074254;28;20043;-52
2021/12/30 05:40:31;;;;;;;312.37;49.57;;;102.70;2227.20;;;;;;5074295;28;20028;-53
2021/12/30 05:42:57;;;;;;;94.07;35.63;;;102.70;2227.20;;;;;;5074749;28;20094;-52
2021/12/30 05:45:23;;;;;;;145.80;41.27;;;102.70;2227.20;;;;;;5074496;28;20028;-60
2021/12/30 05:47:52;;;;;;;177.83;61.30;;;102.80;2227.20;;;;;;5074132;28;20492;-53
2021/12/30 05:50:26;;;;;;;74.07;29.37;;;102.80;2227.20;;;;;;5074661;28;20020;-53
2021/12/30 05:52:52;;;;;;;73.15;18.38;;;102.80;2227.20;;;;;;5074221;28;20393;-52
2021/12/30 05:55:18;;;;;;;139.80;53.67;;;102.70;2227.20;;;;;;5074243;28;20111;-53
2021/12/30 05:57:44;;;;;;;128.90;22.87;;;102.60;2227.20;;;;;;5074000;28;20032;-68
2021/12/30 06:00:14;;;;;;;105.83;25.30;;;102.60;2227.20;;;;;;5073926;28;20109;-68
2021/12/30 06:02:41;;;;;;;79.93;20.13;;;102.50;2227.20;;;;;;5074119;28;20063;-61
2021/12/30 06:05:07;;;;;;;69.53;20.10;;;102.50;2227.20;;;;;;5073884;28;20602;-53
2021/12/30 06:07:33;;;;;;;81.23;23.20;;;102.40;2227.20;;;;;;5074057;28;20029;-53
2021/12/30 06:09:59;;;;;;;339.43;62.03;;;102.60;2227.20;;;;;;5074061;28;20381;-69
2021/12/30 06:12:25;;;;;;;211.57;33.33;;;102.70;2227.20;;;;;;5073690;28;20094;-53
2021/12/30 06:14:51;;;;;;;178.20;27.13;;;102.70;2227.20;;;;;;5073668;28;20024;-53
2021/12/30 06:17:17;;;;;;;99.27;24.97;;;102.70;2227.20;;;;;;5073988;28;20021;-58
2021/12/30 06:19:43;;;;;;;158.20;26.73;;;102.70;2227.20;;;;;;5073608;28;20429;-67
2021/12/30 06:22:10;;;;;;;76.10;23.10;;;102.70;2227.20;;;;;;5074370;28;20029;-52
2021/12/30 06:24:36;;;;;;;112.37;24.17;;;102.60;2227.20;;;;;;5073543;28;20063;-53
2021/12/30 06:27:02;;;;;;;101.90;23.53;;;102.60;2227.20;;;;;;5073546;28;20024;-53
2021/12/30 06:29:28;;;;;;;163.53;33.20;;;102.70;2227.20;;;;;;5073596;28;20024;-53
2021/12/30 06:31:54;;;;;;;169.77;32.63;;;102.70;2227.20;;;;;;5073271;28;20110;-52
2021/12/30 06:34:20;;;;;;;144.13;28.47;;;102.60;2227.20;;;;;;5073448;28;20115;-53
2021/12/30 06:36:48;;;;;;;140.67;30.87;;;102.60;2227.20;;;;;;5073648;28;20056;-54
2021/12/30 06:39:14;;;;;;;236.57;40.23;;;102.50;2227.20;;;;;;5073425;28;20031;-52
2021/12/30 06:41:40;;;;;;;110.27;31.53;;;102.60;2227.20;;;;;;5073426;28;20020;-68
2021/12/30 06:44:06;;;;;;;176.63;34.90;;;102.60;2227.20;;;;;;5073227;28;20036;-68
2021/12/30 06:46:32;;;;;;;124.88;32.40;;;102.60;2227.20;;;;;;5073402;28;20066;-54
2021/12/30 06:48:58;;;;;;;259.43;45.13;;;102.70;2227.20;;;;;;5073287;28;20028;-68
2021/12/30 06:51:26;;;;;;;304.50;50.43;;;102.70;2227.20;;;;;;5072877;28;20063;-53
2021/12/30 06:53:54;;;;;;;275.30;47.27;;;102.70;2227.20;;;;;;5071234;28;20028;-53
2021/12/30 06:56:22;;;;;;;283.57;45.17;;;102.70;2227.20;;;;;;5071251;28;20251;-53
2021/12/30 06:58:48;;;;;;;379.83;58.17;;;102.80;2227.20;;;;;;5071504;28;20108;-53
2021/12/30 07:01:14;;;;;;;433.77;54.57;;;102.70;2227.20;;;;;;5072026;28;20525;-53
2021/12/30 07:03:40;;;;;;;185.10;45.03;;;102.80;2227.20;;;;;;5072481;28;20039;-53
2021/12/30 07:06:07;;;;;;;249.63;43.80;;;102.70;2227.20;;;;;;5072758;28;20025;-53
2021/12/30 07:08:33;;;;;;;306.33;47.53;;;102.70;2227.20;;;;;;5077122;28;20058;-53
2021/12/30 07:10:59;;;;;;;394.30;66.23;;;102.70;2227.20;;;;;;5076703;28;20100;-52
2021/12/30 07:13:25;;;;;;;372.97;60.17;;;102.80;2227.20;;;;;;5076705;28;20099;-52
2021/12/30 07:15:51;;;;;;;350.63;53.83;;;102.80;2227.20;;;;;;5076657;28;20029;-53
2021/12/30 07:18:17;;;;;;;309.33;50.97;;;102.80;2227.20;;;;;;5073916;28;20040;-53
2021/12/30 07:20:42;;;;;;;337.03;49.87;;;102.70;2227.20;;;;;;5076445;28;20056;-69
2021/12/30 07:23:08;;;;;;;223.63;41.30;;;102.80;2227.20;;;;;;5076472;28;20070;-69
2021/12/30 07:25:34;;;;;;;319.17;66.07;;;102.80;2227.20;;;;;;5076629;28;20028;-66
2021/12/30 07:28:04;;;;;;;248.80;56.77;;;102.70;2227.20;;;;;;5076462;28;20486;-53
2021/12/30 07:30:30;;;;;;;353.00;92.90;;;102.60;2227.20;;;;;;5076425;28;20508;-53
2021/12/30 07:32:56;;;;;;;214.63;54.73;;;102.50;2227.20;;;;;;5073519;28;20028;-59
2021/12/30 07:35:23;;;;;;;181.40;50.93;;;102.50;2227.20;;;;;;5075486;28;20058;-70
2021/12/30 07:37:50;;;;;;;214.03;48.47;;;102.40;2227.20;;;;;;5075228;28;20110;-67
2021/12/30 07:40:16;;;;;;;423.67;130.03;;;102.50;2227.20;;;;;;5075413;28;20024;-61
2021/12/30 07:42:42;;;;;;;222.20;91.13;;;102.90;2227.20;;;;;;5075191;28;20030;-70
2021/12/30 07:45:09;;;;;;;172.13;59.57;;;102.60;2227.20;;;;;;5075010;28;20027;-70
2021/12/30 07:47:36;;;;;;;209.43;62.13;;;102.50;2227.20;;;;;;5075073;28;20021;-53
2021/12/30 07:50:04;;;;;;;167.70;41.27;;;102.60;2227.20;;;;;;5074874;28;20452;-54
2021/12/30 07:52:29;;;;;;;148.10;37.20;;;102.60;2227.20;;;;;;5075348;28;20107;-54
2021/12/30 07:54:55;;;;;;;161.23;39.90;;;102.60;2227.20;;;;;;5074794;28;20416;-54
2021/12/30 07:57:22;;;;;;;162.53;44.93;;;102.70;2227.20;;;;;;5075228;28;20017;-54
2021/12/30 07:59:52;;;;;;;151.93;35.47;;;102.70;2227.20;;;;;;5075122;28;20016;-54
2021/12/30 08:02:19;;;;;;;119.23;41.27;;;102.70;2227.20;;;;;;5074988;28;20103;-57
2021/12/30 08:04:45;;;;;;;159.70;60.37;;;102.80;2227.20;;;;;;5074697;28;20108;-55
2021/12/30 08:07:11;;;;;;;102.23;32.47;;;102.90;2227.20;;;;;;5073487;28;20044;-55
2021/12/30 08:09:37;;;;;;;120.13;43.30;;;102.90;2227.20;;;;;;5074568;28;20079;-54
2021/12/30 08:12:04;;;;;;;142.13;52.43;;;102.90;2227.20;;;;;;5074492;28;20051;-57
2021/12/30 08:14:30;;;;;;;89.23;33.37;;;103.00;2227.20;;;;;;5074823;28;20029;-57
2021/12/30 08:16:56;;;;;;;147.43;49.90;;;103.00;2227.20;;;;;;5074884;28;20024;-54
2021/12/30 08:19:22;;;;;;;144.03;46.77;;;103.10;2227.20;;;;;;5073164;28;20026;-55
2021/12/30 08:21:48;;;;;;;173.07;45.63;;;103.20;2227.20;;;;;;5074291;28;20020;-69
2021/12/30 08:24:14;;;;;;;110.00;37.13;;;103.30;2227.20;;;;;;5074796;28;20090;-55
2021/12/30 08:26:40;;;;;;;124.27;32.43;;;103.30;2227.20;;;;;;5070369;28;20033;-54
2021/12/30 08:29:07;;;;;;;233.23;41.23;;;103.20;2227.20;;;;;;5074395;28;20025;-54
2021/12/30 08:31:34;;;;;;;230.77;42.40;;;103.30;2227.20;;;;;;5075440;28;20102;-55
2021/12/30 08:34:00;;;;;;;237.30;99.07;;;103.30;2227.20;;;;;;5075494;28;20028;-73
2021/12/30 08:36:26;;;;;;;95.50;39.70;;;128.00;2252.80;;;;;;5075783;28;20024;-73
2021/12/30 08:38:52;;;;;;;79.53;27.77;;;128.30;2252.80;;;;;;5075737;28;20373;-72
2021/12/30 08:41:17;;;;;;;77.65;28.17;;;128.30;2252.80;;;;;;5075078;28;20029;-55
2021/12/30 08:43:43;;;;;;;87.85;27.65;;;128.20;2252.80;;;;;;5075524;28;20062;-55
2021/12/30 08:46:09;;;;;;;63.22;25.00;;;128.40;2252.80;;;;;;5075496;28;20378;-61
2021/12/30 08:48:37;;;;;;;69.93;29.73;;;128.40;2252.80;;;;;;5075245;28;20028;-54
2021/12/30 08:51:04;;;;;;;51.37;22.63;;;128.40;2252.80;;;;;;5075509;28;20089;-54
2021/12/30 08:53:30;;;;;;;56.75;23.55;;;128.40;2252.80;;;;;;5075054;28;20031;-54
2021/12/30 08:55:56;;;;;;;46.30;21.42;;;128.50;2252.80;;;;;;5074608;28;20380;-54
2021/12/30 08:58:23;;;;;;;45.33;21.08;;;128.40;2252.80;;;;;;5075182;28;20016;-54
2021/12/30 09:00:49;;;;;;;35.38;17.23;;;128.50;2252.80;;;;;;5075439;28;20021;-54
2021/12/30 09:03:17;;;;;;;23.63;12.02;;;128.40;2252.80;;;;;;5075071;28;20038;-54
2021/12/30 09:05:43;;;;;;;23.58;12.88;;;128.30;2252.80;;;;;;5075307;28;20050;-54
2021/12/30 09:08:09;;;;;;;25.53;11.90;;;128.40;2252.80;;;;;;5074976;28;20031;-54
2021/12/30 09:10:40;;;;;;;35.70;17.43;;;128.40;2252.80;;;;;;5074944;28;20021;-54
2021/12/30 09:13:08;;;;;;;51.67;25.80;;;128.40;2252.80;;;;;;5074896;28;20032;-54
2021/12/30 09:15:34;;;;;;;46.40;24.45;;;128.40;2252.80;;;;;;5074905;28;20113;-54
2021/12/30 09:18:01;;;;;;;40.83;22.65;;;128.50;2252.80;;;;;;5074866;28;20495;-54
2021/12/30 09:20:27;;;;;;;23.53;12.80;;;128.60;2252.80;;;;;;5074711;28;20542;-54
2021/12/30 09:22:54;;;;;;;32.60;16.20;;;128.60;2252.80;;;;;;5073741;28;20040;-54
2021/12/30 09:25:23;;;;;;;34.38;18.83;;;128.70;2252.80;;;;;;5074955;28;20021;-54
2021/12/30 09:27:51;;;;;;;32.28;17.80;;;128.70;2252.80;;;;;;5074859;28;20051;-54
2021/12/30 09:30:19;;;;;;;26.25;17.52;;;128.70;2252.80;;;;;;5073866;28;20024;-54
2021/12/30 09:32:47;;;;;;;20.83;11.77;;;128.80;2252.80;;;;;;5074864;28;20097;-54
2021/12/30 09:35:13;;;;;;;30.10;17.33;;;128.70;2252.80;;;;;;5074498;28;20524;-54
2021/12/30 09:37:41;;;;;;;34.20;18.53;;;128.80;2252.80;;;;;;5074678;28;20094;-54
2021/12/30 09:40:10;;;;;;;30.70;16.63;;;128.80;2252.80;;;;;;5074642;28;20028;-54
2021/12/30 09:42:38;;;;;;;55.50;33.13;;;128.80;2252.80;;;;;;5074171;28;20033;-54
2021/12/30 09:45:05;;;;;;;33.30;17.75;;;128.80;2252.80;;;;;;5073370;28;20489;-54
2021/12/30 09:47:33;;;;;;;43.40;22.00;;;128.80;2252.80;;;;;;5074254;28;20033;-54
2021/12/30 09:50:01;;;;;;;50.20;23.77;;;128.70;2252.80;;;;;;5074130;28;20039;-54
2021/12/30 09:52:26;;;;;;;28.83;15.27;;;128.90;2252.80;;;;;;5074200;28;20025;-54
2021/12/30 09:54:52;;;;;;;28.80;15.85;;;128.80;2252.80;;;;;;5074095;28;20576;-54
2021/12/30 09:57:18;;;;;;;27.53;13.47;;;128.90;2252.80;;;;;;5074041;28;20020;-54
2021/12/30 09:59:44;;;;;;;55.47;27.37;;;128.80;2252.80;;;;;;5074026;28;20024;-54
2021/12/30 10:02:10;;;;;;;34.55;17.60;;;128.80;2252.80;;;;;;5074133;28;20032;-54
2021/12/30 10:04:36;;;;;;;102.28;44.08;;;128.80;2252.80;;;;;;5073892;28;20032;-54
2021/12/30 10:07:17;;;;;;;112.43;43.63;;;128.60;2252.80;;;;;;5073795;28;20020;-54
2021/12/30 10:09:50;;;;;;;109.90;41.00;;;128.70;2252.80;;;;;;5073899;28;20469;-54
2021/12/30 10:12:36;;;;;;;33.72;15.25;;;128.80;2252.80;;;;;;5073802;28;20024;-54
2021/12/30 10:15:03;;;;;;;28.55;14.57;;;128.90;2252.80;;;;;;5073957;28;20029;-54
2021/12/30 10:17:29;;;;;;;33.90;15.90;;;128.80;2252.80;;;;;;5073718;28;20033;-54
2021/12/30 10:20:15;;;;;;;35.08;16.80;;;128.80;2252.80;;;;;;5073664;28;20025;-54
2021/12/30 10:22:42;;;;;;;24.85;13.05;;;128.80;2252.80;;;;;;5069539;28;20036;-53
2021/12/30 10:25:37;;;;;;;23.92;12.57;;;153.60;2252.80;;;;;;5073447;28;20051;-54
2021/12/30 10:28:36;;;;;;;47.53;24.92;;;153.60;2252.80;;;;;;5073319;28;20059;-55
2021/12/30 10:31:11;;;;;;;44.88;25.45;;;153.70;2252.80;;;;;;5070561;28;20041;-68
2021/12/30 10:33:54;;;;;;;62.57;23.97;;;153.90;2252.80;;;;;;5073385;28;20059;-54
2021/12/30 10:36:35;;;;;;;52.80;26.60;;;153.90;2252.80;;;;;;5073033;28;20020;-54
2021/12/30 10:39:27;;;;;;;127.20;81.40;;;154.10;2252.80;;;;;;5073195;28;20024;-54
2021/12/30 10:42:10;;;;;;;121.78;85.78;;;154.40;2252.80;;;;;;5072467;28;20025;-55
2021/12/30 10:45:04;;;;;;;61.58;39.22;;;179.20;2252.80;;;;;;5073364;28;20133;-55
2021/12/30 10:47:33;;;;;;;39.45;21.17;;;179.50;2252.80;;;;;;5071694;28;20033;-54
2021/12/30 10:50:06;;;;;;;49.38;34.78;;;179.60;2252.80;;;;;;5072962;28;20056;-54
2021/12/30 10:52:33;;;;;;;22.60;14.50;;;179.60;2252.80;;;;;;5073103;28;20020;-54
2021/12/30 10:55:09;;;;;;;19.52;11.75;;;179.80;2252.80;;;;;;5073320;28;20036;-54
2021/12/30 10:57:35;;;;;;;37.38;21.65;;;179.80;2252.80;;;;;;5073067;28;20493;-55
2021/12/30 11:00:01;;;;;;;53.30;31.63;;;179.70;2252.80;;;;;;5073065;28;20029;-55
2021/12/30 11:02:28;;;;;;;38.15;23.83;;;179.60;2252.80;;;;;;5073067;28;20033;-55
2021/12/30 11:05:02;;;;;;;37.85;23.90;;;179.60;2252.80;;;;;;5072934;28;20029;-55
2021/12/30 11:07:37;;;;;;;;;;;179.60;2252.80;;;;;;5073340;28;20040;-55
2021/12/30 11:10:03;;;;;;;41.50;25.67;;;179.70;2252.80;;;;;;5072962;28;19991;-57
2021/12/30 11:12:32;;;;;;;50.75;31.77;;;179.60;2252.80;;;;;;5072676;28;20021;-54
2021/12/30 11:15:04;;;;;;;80.07;52.05;;;179.60;2252.80;;;;;;5072788;28;20546;-72
2021/12/30 11:17:35;;;;;;;61.33;38.70;;;179.50;2252.80;;;;;;5072719;28;20607;-55
2021/12/30 11:20:07;;;;;;;43.10;28.17;;;179.60;2252.80;;;;;;5072819;28;20093;-55
2021/12/30 11:22:36;;;;;;;36.75;24.60;;;179.80;2252.80;;;;;;5072898;28;20035;-54
2021/12/30 11:25:11;;;;;;;37.13;23.58;;;179.80;2252.80;;;;;;5072674;28;20415;-54
2021/12/30 11:27:37;;;;;;;40.88;26.17;;;179.70;2252.80;;;;;;5072704;28;20025;-55
2021/12/30 11:30:13;;;;;;;42.15;26.55;;;179.70;2252.80;;;;;;5072902;28;20029;-55
2021/12/30 11:32:39;;;;;;;52.00;34.20;;;179.60;2252.80;;;;;;5072331;28;20044;-54
2021/12/30 11:35:08;;;;;;;61.35;39.55;;;179.50;2252.80;;;;;;5072496;28;20060;-55
2021/12/30 11:37:35;;;;;;;60.90;40.55;;;179.50;2252.80;;;;;;5071284;28;20531;-55
2021/12/30 11:40:12;;;;;;;368.08;240.68;;;179.50;2252.80;;;;;;5073028;28;20369;-55
2021/12/30 11:42:42;;;;;;;84.13;52.55;;;179.50;2252.80;;;;;;5072779;28;20108;-54
2021/12/30 11:45:25;;;;;;;67.90;42.97;;;179.80;2252.80;;;;;;5070389;28;20028;-55
2021/12/30 11:47:52;;;;;;;84.13;50.83;;;179.60;2252.80;;;;;;5070126;28;20031;-54
2021/12/30 11:50:31;;;;;;;76.72;49.10;;;179.60;2252.80;;;;;;5071899;28;20107;-54
2021/12/30 11:53:11;;;;;;;82.40;48.45;;;179.50;2252.80;;;;;;5053618;28;20029;-54
2021/12/30 11:55:49;;;;;;;76.60;45.45;;;179.40;2252.80;;;;;;5055996;28;20029;-59
2021/12/30 11:58:42;;;;;;;88.35;48.45;;;179.40;2252.80;;;;;;5073691;28;20037;-54
2021/12/30 12:01:14;;;;;;;84.47;48.72;;;179.20;2252.80;;;;;;5073958;28;20082;-55
2021/12/30 12:03:42;;;;;;;91.22;51.85;;;179.20;2252.80;;;;;;5073999;28;20419;-54